Time;durP1;ratioP1;P1;durP2;ratioP2;P2;SDS_P1;SDS_P2;PMS_P1;PMS_P2;Temp;Humidity;BMP_temperature;BMP_pressure;BME280_temperature;BME280_humidity;BME280_pressure;Samples;Min_cycle;Max_cycle;Signal;HPM_P1;HPM_P2
2022/09/06 00:01:27;;;;;;;8.05;6.53;;;;;;;;;;5013380;28;20030;-77
2022/09/06 00:03:53;;;;;;;8.55;5.80;;;;;;;;;;5013121;28;20058;-75
2022/09/06 00:06:19;;;;;;;9.00;6.38;;;;;;;;;;5013518;28;20522;-77
2022/09/06 00:08:46;;;;;;;10.98;6.28;;;;;;;;;;5013366;28;20022;-77
2022/09/06 00:11:13;;;;;;;9.63;6.05;;;;;;;;;;5028617;28;20041;-79
2022/09/06 00:13:39;;;;;;;12.07;6.22;;;;;;;;;;5028444;28;20378;-77
2022/09/06 00:16:09;;;;;;;9.40;6.60;;;;;;;;;;5013245;28;20030;-77
2022/09/06 00:18:36;;;;;;;8.55;6.32;;;;;;;;;;5028484;28;20033;-77
2022/09/06 00:21:04;;;;;;;12.93;6.30;;;;;;;;;;5028369;28;20053;-77
2022/09/06 00:23:30;;;;;;;8.18;6.32;;;;;;;;;;5031623;28;20034;-77
2022/09/06 00:26:06;;;;;;;8.18;6.20;;;;;;;;;;5032136;28;20025;-78
2022/09/06 00:28:32;;;;;;;9.70;6.57;;;;;;;;;;5031952;28;20026;-77
2022/09/06 00:30:58;;;;;;;8.25;6.03;;;;;;;;;;5017275;28;20480;-77
2022/09/06 00:33:24;;;;;;;9.07;6.30;;;;;;;;;;5032000;28;20033;-76
2022/09/06 00:35:50;;;;;;;9.30;5.95;;;;;;;;;;5031926;28;20033;-78
2022/09/06 00:38:16;;;;;;;12.90;6.30;;;;;;;;;;5031991;28;20030;-78
2022/09/06 00:40:43;;;;;;;8.85;6.38;;;;;;;;;;5031819;28;20116;-76
2022/09/06 00:43:09;;;;;;;9.00;6.25;;;;;;;;;;5031777;28;20034;-74
2022/09/06 00:45:35;;;;;;;12.73;6.55;;;;;;;;;;5031585;28;20037;-77
2022/09/06 00:48:01;;;;;;;9.95;6.75;;;;;;;;;;5031703;28;20026;-75
2022/09/06 00:50:28;;;;;;;11.35;6.25;;;;;;;;;;5031587;28;20030;-77
2022/09/06 00:52:54;;;;;;;11.20;6.13;;;;;;;;;;5031667;28;20033;-78
2022/09/06 00:55:21;;;;;;;11.18;6.07;;;;;;;;;;5031672;28;20121;-76
2022/09/06 00:57:51;;;;;;;8.43;5.68;;;;;;;;;;5031364;28;20041;-77
2022/09/06 01:00:18;;;;;;;7.95;5.50;;;;;;;;;;5031596;28;20206;-77
2022/09/06 01:02:44;;;;;;;8.70;5.18;;;;;;;;;;5031297;28;20053;-78
2022/09/06 01:05:11;;;;;;;8.30;5.85;;;;;;;;;;5031390;28;20109;-77
2022/09/06 01:07:56;;;;;;;7.50;5.70;;;;;;;;;;5016131;28;20037;-77
2022/09/06 01:10:22;;;;;;;8.60;5.43;;;;;;;;;;5031336;28;20034;-78
2022/09/06 01:13:00;;;;;;;8.70;5.53;;;;;;;;;;5016125;28;20025;-78
2022/09/06 01:15:52;;;;;;;6.90;5.28;;;;;;;;;;5031574;28;20026;-78
2022/09/06 01:18:37;;;;;;;9.25;5.95;;;;;;;;;;5031134;28;20136;-78
2022/09/06 01:21:09;;;;;;;9.35;5.90;;;;;;;;;;5015866;28;20105;-78
2022/09/06 01:23:49;;;;;;;8.63;5.75;;;;;;;;;;5031118;28;20117;-77
2022/09/06 01:26:34;;;;;;;8.85;5.05;;;;;;;;;;5031085;28;20085;-77
2022/09/06 01:29:00;;;;;;;9.55;5.80;;;;;;;;;;5030969;28;20026;-77
2022/09/06 01:31:27;;;;;;;9.27;6.00;;;;;;;;;;5030842;28;20029;-75
2022/09/06 01:33:56;;;;;;;8.07;5.82;;;;;;;;;;5029916;28;20030;-77
2022/09/06 01:36:25;;;;;;;8.85;5.50;;;;;;;;;;5015572;28;20091;-76
2022/09/06 01:38:52;;;;;;;7.07;5.35;;;;;;;;;;5030888;28;20022;-77
2022/09/06 01:41:18;;;;;;;8.45;5.38;;;;;;;;;;5015995;28;20030;-76
2022/09/06 01:43:47;;;;;;;8.38;4.97;;;;;;;;;;5015400;28;20112;-77
2022/09/06 01:46:19;;;;;;;6.80;5.20;;;;;;;;;;5015480;28;20022;-76
2022/09/06 01:49:00;;;;;;;7.53;5.00;;;;;;;;;;5030641;28;20387;-77
2022/09/06 01:51:32;;;;;;;6.03;4.70;;;;;;;;;;5030480;28;20026;-78
2022/09/06 01:53:58;;;;;;;7.97;5.30;;;;;;;;;;5015234;28;20501;-78
2022/09/06 01:56:37;;;;;;;11.68;5.10;;;;;;;;;;5030337;28;20033;-78
2022/09/06 01:59:15;;;;;;;9.18;4.93;;;;;;;;;;5030428;28;20037;-77
2022/09/06 02:01:44;;;;;;;7.40;5.15;;;;;;;;;;5015713;28;20100;-77
2022/09/06 02:04:22;;;;;;;7.97;6.00;;;;;;;;;;5030070;28;20502;-78
2022/09/06 02:06:55;;;;;;;9.43;5.88;;;;;;;;;;5030288;28;20026;-77
2022/09/06 02:09:23;;;;;;;12.13;5.05;;;;;;;;;;5030110;28;20030;-78
2022/09/06 02:11:51;;;;;;;6.90;5.28;;;;;;;;;;5030261;28;20064;-78
2022/09/06 02:14:22;;;;;;;7.82;5.55;;;;;;;;;;5030101;28;20174;-77
2022/09/06 02:16:50;;;;;;;8.05;5.10;;;;;;;;;;5029976;28;20034;-77
2022/09/06 02:19:22;;;;;;;9.63;5.10;;;;;;;;;;5015365;28;20477;-76
2022/09/06 02:21:48;;;;;;;8.45;5.07;;;;;;;;;;5029801;28;20036;-76
2022/09/06 02:24:21;;;;;;;9.65;4.97;;;;;;;;;;5029940;28;20037;-77
2022/09/06 02:26:47;;;;;;;7.55;4.97;;;;;;;;;;5014648;28;20034;-77
2022/09/06 02:29:13;;;;;;;6.90;4.90;;;;;;;;;;5029846;28;20108;-79
2022/09/06 02:31:40;;;;;;;11.13;5.35;;;;;;;;;;5014562;28;20022;-75
2022/09/06 02:34:06;;;;;;;10.40;5.00;;;;;;;;;;5014596;28;20029;-79
2022/09/06 02:36:35;;;;;;;8.07;5.35;;;;;;;;;;5029592;28;20038;-78
2022/09/06 02:39:02;;;;;;;10.43;5.82;;;;;;;;;;5014453;28;20080;-78
2022/09/06 02:41:29;;;;;;;6.45;4.40;;;;;;;;;;5029608;28;20026;-77
2022/09/06 02:43:56;;;;;;;6.60;4.60;;;;;;;;;;5029658;28;20041;-79
2022/09/06 02:46:23;;;;;;;11.15;5.80;;;;;;;;;;5014182;28;20026;-77
2022/09/06 02:48:49;;;;;;;10.68;5.97;;;;;;;;;;5029487;28;20026;-79
2022/09/06 02:51:16;;;;;;;6.80;5.25;;;;;;;;;;5014155;28;20026;-78
2022/09/06 05:27:45;;;;;;;7.35;4.55;;;;;;;;;;5892993;23;21041;-96
2022/09/06 05:30:11;;;;;;;6.18;4.43;;;;;;;;;;4900931;29;20032;-94
2022/09/06 05:32:37;;;;;;;7.28;4.35;;;;;;;;;;4883052;29;20025;-94
2022/09/06 05:35:03;;;;;;;7.53;4.65;;;;;;;;;;4882919;29;20049;-95
2022/09/06 05:37:33;;;;;;;7.38;4.10;;;;;;;;;;4891715;29;20044;-95
2022/09/06 05:43:20;;;;;;;6.43;4.10;;;;;;;;;;4867487;29;20043;-96
2022/09/06 05:46:04;;;;;;;6.15;3.80;;;;;;;;;;4884487;29;20053;-96
2022/09/06 05:49:00;;;;;;;9.30;4.28;;;;;;;;;;4881910;29;20128;-96
2022/09/06 05:51:26;;;;;;;8.63;3.67;;;;;;;;;;4882439;29;20386;-95
2022/09/06 05:54:02;;;;;;;6.43;3.60;;;;;;;;;;4883260;29;20033;-96
2022/09/06 05:59:58;;;;;;;;;;;;;;;;;;;;;
2022/09/06 06:02:36;;;;;;;4.97;3.38;;;;;;;;;;4918636;29;20096;-96
2022/09/06 06:05:06;;;;;;;7.03;3.67;;;;;;;;;;4944807;28;20024;-95
2022/09/06 06:07:32;;;;;;;6.40;3.58;;;;;;;;;;4914756;29;20033;-95
2022/09/06 06:10:11;;;;;;;5.13;3.28;;;;;;;;;;4913673;29;20025;-95
2022/09/06 06:12:40;;;;;;;6.07;3.28;;;;;;;;;;4925459;29;20045;-94
2022/09/06 06:15:15;;;;;;;6.40;3.10;;;;;;;;;;5018317;23;20036;-94
2022/09/06 06:20:46;;;;;;;6.80;3.25;;;;;;;;;;5668836;23;20086;-91
2022/09/06 06:23:28;;;;;;;4.30;3.10;;;;;;;;;;4924213;29;20054;-93
2022/09/06 06:25:56;;;;;;;5.07;3.30;;;;;;;;;;4921954;29;20032;-93
2022/09/06 06:29:01;;;;;;;;;;;;;;;;;;;;;
2022/09/06 06:34:36;;;;;;;4.43;3.05;;;;;;;;;;4943875;23;20082;-94
2022/09/06 06:37:30;;;;;;;4.15;2.75;;;;;;;;;;4923316;29;20036;-94
2022/09/06 07:04:11;;;;;;;4.35;1.65;;;;;;;;;;5562935;23;20107;-90
2022/09/06 07:09:56;;;;;;;;;;;;;;;;;;4950262;29;20082;-93
2022/09/06 07:12:52;;;;;;;5.30;2.10;;;;;;;;;;4934032;29;19907;-90
2022/09/06 07:15:18;;;;;;;3.65;1.98;;;;;;;;;;4923725;29;20120;-90
2022/09/06 07:18:19;;;;;;;4.60;1.65;;;;;;;;;;4922892;29;20044;-91
2022/09/06 07:41:51;;;;;;;3.10;1.90;;;;;;;;;;5749489;23;20352;-92
2022/09/06 08:02:35;;;;;;;5.15;2.00;;;;;;;;;;5816313;23;21133;-93
2022/09/06 08:05:01;;;;;;;5.13;2.10;;;;;;;;;;4920801;29;20032;-93
2022/09/06 08:07:30;;;;;;;4.78;2.20;;;;;;;;;;4923089;29;20090;-91
2022/09/06 09:39:01;;;;;;;2.70;1.42;;;;;;;;;;4939876;29;20062;-93
2022/09/06 09:44:33;;;;;;;2.20;1.40;;;;;;;;;;4925294;29;20032;-90
2022/09/06 10:33:26;;;;;;;2.85;1.77;;;;;;;;;;5733945;23;20112;-90
2022/09/06 10:35:52;;;;;;;5.85;2.17;;;;;;;;;;4903054;29;20079;-89
2022/09/06 10:38:44;;;;;;;3.42;2.20;;;;;;;;;;4950523;23;20051;-90
2022/09/06 10:42:02;;;;;;;9.75;2.58;;;;;;;;;;5040824;23;20087;-91
2022/09/06 10:51:33;;;;;;;6.72;2.58;;;;;;;;;;4934748;29;20073;-93
2022/09/06 11:06:50;;;;;;;5.57;2.38;;;;;;;;;;4921140;29;20055;-95
2022/09/06 11:09:49;;;;;;;4.78;2.38;;;;;;;;;;4937753;29;20080;-95
2022/09/06 11:12:40;;;;;;;6.88;2.85;;;;;;;;;;4921482;29;20111;-94
2022/09/06 11:15:15;;;;;;;4.68;2.33;;;;;;;;;;4920721;29;20473;-95
2022/09/06 11:18:00;;;;;;;3.88;2.30;;;;;;;;;;4930551;29;20080;-90
2022/09/06 11:20:34;;;;;;;11.45;2.55;;;;;;;;;;4908853;29;20499;-93
2022/09/06 11:23:22;;;;;;;4.78;2.50;;;;;;;;;;4911289;29;20346;-94
2022/09/06 11:25:54;;;;;;;3.78;2.33;;;;;;;;;;4901387;29;20396;-93
2022/09/06 11:28:29;;;;;;;4.20;2.60;;;;;;;;;;4901956;29;20020;-93
2022/09/06 11:31:06;;;;;;;4.45;2.47;;;;;;;;;;4901555;29;20032;-94
2022/09/06 11:33:54;;;;;;;6.13;2.45;;;;;;;;;;4902071;29;20036;-93
2022/09/06 11:36:31;;;;;;;6.32;2.25;;;;;;;;;;4917880;29;20043;-94
2022/09/06 11:41:59;;;;;;;4.93;2.58;;;;;;;;;;4917928;29;20036;-92
2022/09/06 11:44:44;;;;;;;4.28;2.45;;;;;;;;;;4910402;29;20043;-95
2022/09/06 11:47:39;;;;;;;5.63;2.25;;;;;;;;;;4929065;29;20519;-94
2022/09/06 11:50:37;;;;;;;4.13;2.35;;;;;;;;;;4921431;29;20028;-92
2022/09/06 11:53:06;;;;;;;3.20;2.20;;;;;;;;;;4879154;29;20146;-93
2022/09/06 11:56:03;;;;;;;10.63;2.40;;;;;;;;;;4897911;29;20028;-93
2022/09/06 11:59:26;;;;;;;3.97;2.38;;;;;;;;;;4883199;29;20051;-96
2022/09/06 12:05:30;;;;;;;6.13;2.25;;;;;;;;;;4802905;29;20126;-94
2022/09/06 12:08:13;;;;;;;10.18;2.50;;;;;;;;;;4824315;29;20047;-95
2022/09/06 12:11:15;;;;;;;5.55;2.58;;;;;;;;;;4846154;29;20022;-96
2022/09/06 12:14:04;;;;;;;4.50;2.45;;;;;;;;;;4936377;29;20084;-94
2022/09/06 12:16:49;;;;;;;4.97;2.67;;;;;;;;;;4939632;29;20035;-94
2022/09/06 12:19:35;;;;;;;4.10;2.42;;;;;;;;;;4958764;28;20034;-95
2022/09/06 12:22:01;;;;;;;6.57;2.60;;;;;;;;;;4943008;29;20024;-95
2022/09/06 12:24:33;;;;;;;3.60;2.50;;;;;;;;;;4925478;29;20374;-95
2022/09/06 12:27:14;;;;;;;2.85;2.03;;;;;;;;;;4924092;29;20068;-95
2022/09/06 12:29:48;;;;;;;11.77;2.58;;;;;;;;;;4924599;29;20031;-94
2022/09/06 12:32:18;;;;;;;3.03;1.90;;;;;;;;;;4927585;29;20040;-94
2022/09/06 12:34:45;;;;;;;2.58;1.65;;;;;;;;;;4924067;29;20027;-94
2022/09/06 12:37:12;;;;;;;4.32;2.10;;;;;;;;;;4941394;29;20199;-95
2022/09/06 12:42:46;;;;;;;2.75;1.90;;;;;;;;;;4923393;29;20131;-94
2022/09/06 12:45:18;;;;;;;3.00;1.92;;;;;;;;;;4924280;29;20035;-93
2022/09/06 12:47:52;;;;;;;4.47;1.70;;;;;;;;;;4923843;29;20106;-95
2022/09/06 12:50:50;;;;;;;4.82;2.20;;;;;;;;;;4937064;29;20015;-94
2022/09/06 12:53:38;;;;;;;2.47;1.67;;;;;;;;;;4927491;29;20036;-94
2022/09/06 12:56:11;;;;;;;2.55;1.50;;;;;;;;;;4931744;29;20027;-93
2022/09/06 12:58:43;;;;;;;3.35;1.73;;;;;;;;;;4939697;29;20131;-94
2022/09/06 13:01:44;;;;;;;2.50;1.90;;;;;;;;;;4926798;29;20031;-95
2022/09/06 13:04:32;;;;;;;2.58;1.63;;;;;;;;;;4942747;29;20016;-95
2022/09/06 13:07:14;;;;;;;6.28;1.90;;;;;;;;;;4939773;29;20036;-95
2022/09/06 13:09:42;;;;;;;3.00;2.40;;;;;;;;;;4922743;29;20148;-92
2022/09/06 13:12:25;;;;;;;2.95;1.98;;;;;;;;;;4922380;29;20035;-95
2022/09/06 13:15:06;;;;;;;5.28;2.08;;;;;;;;;;4921322;29;20453;-95
2022/09/06 13:17:34;;;;;;;3.88;2.20;;;;;;;;;;4930210;29;20040;-93
2022/09/06 13:20:09;;;;;;;8.70;2.60;;;;;;;;;;4923164;29;20027;-93
2022/09/06 13:23:14;;;;;;;6.40;2.10;;;;;;;;;;4937255;29;20031;-96
2022/09/06 13:26:06;;;;;;;4.55;2.60;;;;;;;;;;4864249;29;20052;-95
2022/09/06 13:28:34;;;;;;;3.08;2.45;;;;;;;;;;4876782;29;20188;-94
2022/09/06 13:34:10;;;;;;;3.65;2.15;;;;;;;;;;4863890;29;20090;-95
2022/09/06 13:36:48;;;;;;;3.35;2.40;;;;;;;;;;4932741;29;20040;-94
2022/09/06 13:39:37;;;;;;;3.08;2.20;;;;;;;;;;4906506;29;20489;-96
2022/09/06 13:42:08;;;;;;;3.08;2.15;;;;;;;;;;4912679;29;20024;-95
2022/09/06 13:44:40;;;;;;;3.47;2.55;;;;;;;;;;4913166;29;20108;-94
2022/09/06 13:47:15;;;;;;;5.05;2.28;;;;;;;;;;4911454;29;20080;-94
2022/09/06 13:49:41;;;;;;;3.10;2.20;;;;;;;;;;4924191;29;20031;-96
2022/09/06 13:52:08;;;;;;;3.35;2.42;;;;;;;;;;4924439;29;20044;-93
2022/09/06 13:54:36;;;;;;;3.75;2.85;;;;;;;;;;4909145;29;20071;-94
2022/09/06 13:59:41;;;;;;;3.20;2.30;;;;;;;;;;5840884;23;20063;-95
2022/09/06 14:02:14;;;;;;;4.05;2.65;;;;;;;;;;4919557;29;20115;-94
2022/09/06 14:04:43;;;;;;;;;;;;;;;;;;4908498;29;20065;-95
2022/09/06 14:07:09;;;;;;;4.05;2.47;;;;;;;;;;4905087;29;19907;-90
2022/09/06 14:09:36;;;;;;;3.10;2.40;;;;;;;;;;4903646;29;20024;-88
2022/09/06 14:12:30;;;;;;;4.93;2.50;;;;;;;;;;4902502;29;20028;-88
2022/09/06 14:14:56;;;;;;;3.22;2.17;;;;;;;;;;4902439;29;20032;-89
2022/09/06 14:17:22;;;;;;;3.15;1.95;;;;;;;;;;4902487;29;20063;-89
2022/09/06 14:19:49;;;;;;;4.65;2.35;;;;;;;;;;4903208;29;20062;-89
2022/09/06 14:22:15;;;;;;;4.25;2.28;;;;;;;;;;4903076;29;20512;-88
2022/09/06 14:24:41;;;;;;;2.85;2.03;;;;;;;;;;4902567;29;20473;-89
2022/09/06 14:27:07;;;;;;;3.00;1.85;;;;;;;;;;4919446;29;20036;-88
2022/09/06 14:29:40;;;;;;;3.85;1.73;;;;;;;;;;4904122;29;20087;-90
2022/09/06 14:32:06;;;;;;;;;;;;;;;;;;4905182;29;20144;-92
2022/09/06 14:34:42;;;;;;;3.35;2.00;;;;;;;;;;4904052;29;19951;-91
2022/09/06 14:37:08;;;;;;;3.50;2.17;;;;;;;;;;4903296;29;20028;-92
2022/09/06 14:42:40;;;;;;;3.60;2.22;;;;;;;;;;4921901;29;20034;-90
2022/09/06 14:45:07;;;;;;;2.90;2.08;;;;;;;;;;4903361;29;20028;-91
2022/09/06 14:47:33;;;;;;;2.75;1.88;;;;;;;;;;4904399;29;20040;-90
2022/09/06 14:49:59;;;;;;;2.90;2.10;;;;;;;;;;4912340;29;20095;-91
2022/09/06 14:52:25;;;;;;;3.28;2.10;;;;;;;;;;4917304;29;20036;-90
2022/09/06 14:54:52;;;;;;;4.45;1.83;;;;;;;;;;4905149;29;20032;-90
2022/09/06 14:57:18;;;;;;;2.53;1.90;;;;;;;;;;4908480;29;20032;-90
2022/09/06 14:59:44;;;;;;;2.28;1.60;;;;;;;;;;4914573;29;20436;-90
2022/09/06 15:02:10;;;;;;;3.20;1.80;;;;;;;;;;4921910;29;20035;-90
2022/09/06 15:04:40;;;;;;;2.20;1.55;;;;;;;;;;4929632;29;20050;-93
2022/09/06 15:07:07;;;;;;;3.05;1.60;;;;;;;;;;4932149;29;20163;-91
2022/09/06 15:09:33;;;;;;;2.63;1.77;;;;;;;;;;4920904;29;20036;-91
2022/09/06 15:11:59;;;;;;;2.78;1.40;;;;;;;;;;4920893;29;20031;-90
2022/09/06 15:14:29;;;;;;;2.50;1.48;;;;;;;;;;4921427;29;20126;-91
2022/09/06 15:16:58;;;;;;;2.20;1.58;;;;;;;;;;4922174;29;20454;-91
2022/09/06 15:19:25;;;;;;;4.68;1.80;;;;;;;;;;4931725;29;20031;-91
2022/09/06 15:21:52;;;;;;;4.05;1.27;;;;;;;;;;4940043;29;20035;-91
2022/09/06 15:24:21;;;;;;;2.78;1.40;;;;;;;;;;4930907;29;20125;-94
2022/09/06 15:26:57;;;;;;;2.20;1.40;;;;;;;;;;4928834;29;20039;-91
2022/09/06 15:29:25;;;;;;;2.97;1.50;;;;;;;;;;4928052;29;20212;-92
2022/09/06 15:32:14;;;;;;;5.32;1.80;;;;;;;;;;4921604;29;20036;-93
2022/09/06 15:34:49;;;;;;;2.88;1.50;;;;;;;;;;4910731;29;20056;-92
2022/09/06 15:37:15;;;;;;;2.45;1.40;;;;;;;;;;4921528;29;20099;-94
2022/09/06 15:40:09;;;;;;;2.50;1.48;;;;;;;;;;4923421;29;20122;-94
2022/09/06 15:42:39;;;;;;;5.18;1.60;;;;;;;;;;4924037;29;20031;-92
2022/09/06 15:45:23;;;;;;;2.80;1.65;;;;;;;;;;4923416;29;20036;-94
2022/09/06 15:47:56;;;;;;;5.05;1.63;;;;;;;;;;4919767;29;20024;-92
2022/09/06 15:50:30;;;;;;;3.65;1.65;;;;;;;;;;4940249;29;20076;-93
2022/09/06 15:56:02;;;;;;;2.70;1.60;;;;;;;;;;4946640;29;19910;-94
2022/09/06 15:58:33;;;;;;;5.07;1.98;;;;;;;;;;4942849;29;20088;-91
2022/09/06 16:04:02;;;;;;;6.55;2.08;;;;;;;;;;4933210;29;20130;-93
2022/09/06 16:06:36;;;;;;;3.72;2.05;;;;;;;;;;4906046;29;20506;-93
2022/09/06 16:09:12;;;;;;;3.42;1.98;;;;;;;;;;4906066;29;20039;-92
2022/09/06 16:11:47;;;;;;;2.80;1.85;;;;;;;;;;4923097;29;20024;-93
2022/09/06 16:14:14;;;;;;;3.22;1.77;;;;;;;;;;4905439;29;20057;-90
2022/09/06 16:16:42;;;;;;;3.20;1.70;;;;;;;;;;4922083;29;20032;-89
2022/09/06 16:19:11;;;;;;;3.10;2.00;;;;;;;;;;4907286;29;20032;-93
2022/09/06 16:21:42;;;;;;;6.45;2.00;;;;;;;;;;4910241;29;20217;-91
2022/09/06 16:24:13;;;;;;;3.38;1.73;;;;;;;;;;4917593;29;20032;-92
2022/09/06 16:26:43;;;;;;;3.05;1.67;;;;;;;;;;4908515;29;20024;-94
2022/09/06 16:29:15;;;;;;;2.60;1.90;;;;;;;;;;4933854;29;20049;-92
2022/09/06 16:31:58;;;;;;;2.88;1.90;;;;;;;;;;4923673;29;20091;-89
2022/09/06 16:34:25;;;;;;;3.28;2.22;;;;;;;;;;4906887;29;20048;-94
2022/09/06 16:36:56;;;;;;;4.30;2.15;;;;;;;;;;4922375;29;20036;-94
2022/09/06 16:39:31;;;;;;;2.95;2.28;;;;;;;;;;4907225;29;20028;-95
2022/09/06 16:42:20;;;;;;;5.53;2.45;;;;;;;;;;4909626;29;20053;-96
2022/09/06 16:44:51;;;;;;;3.15;2.03;;;;;;;;;;4911671;29;20254;-92
2022/09/06 16:47:21;;;;;;;3.20;1.77;;;;;;;;;;4924333;29;20014;-91
2022/09/06 16:53:19;;;;;;;3.78;2.42;;;;;;;;;;4960319;23;20059;-96
2022/09/06 16:55:48;;;;;;;4.78;2.38;;;;;;;;;;4957665;29;20051;-92
2022/09/06 17:01:25;;;;;;;3.03;2.10;;;;;;;;;;4956964;29;20045;-92
2022/09/06 17:04:16;;;;;;;3.20;2.33;;;;;;;;;;4935474;29;20027;-92
2022/09/06 17:12:50;;;;;;;3.45;2.17;;;;;;;;;;4960765;29;20019;-91
2022/09/06 17:15:20;;;;;;;4.90;3.03;;;;;;;;;;4938574;29;20046;-91
2022/09/06 17:18:00;;;;;;;3.30;2.58;;;;;;;;;;4932840;29;20039;-96
2022/09/06 17:20:27;;;;;;;4.30;2.90;;;;;;;;;;4925386;29;20044;-91
2022/09/06 17:30:47;;;;;;;13.88;5.65;;;;;;;;;;5074651;23;20055;-93
2022/09/06 17:33:34;;;;;;;11.88;4.53;;;;;;;;;;4923322;29;20030;-90
2022/09/06 17:36:06;;;;;;;19.67;8.93;;;;;;;;;;4917667;29;20123;-91
2022/09/06 17:38:33;;;;;;;11.85;5.28;;;;;;;;;;4921139;29;20119;-92
2022/09/06 17:41:07;;;;;;;16.45;6.00;;;;;;;;;;4935212;29;20153;-92
2022/09/06 17:43:52;;;;;;;13.53;5.63;;;;;;;;;;4990534;23;20062;-94
2022/09/06 17:46:20;;;;;;;12.25;4.68;;;;;;;;;;4923772;29;20533;-83
2022/09/06 17:48:46;;;;;;;7.40;4.15;;;;;;;;;;4922436;29;20032;-77
2022/09/06 17:51:13;;;;;;;6.05;3.58;;;;;;;;;;4920804;29;20119;-94
2022/09/06 17:53:40;;;;;;;6.93;3.40;;;;;;;;;;4921871;29;20039;-82
2022/09/06 17:56:07;;;;;;;6.22;3.67;;;;;;;;;;4923593;29;20499;-72
2022/09/06 17:58:35;;;;;;;11.88;5.40;;;;;;;;;;4954190;29;20044;-81
2022/09/06 18:01:05;;;;;;;10.00;5.55;;;;;;;;;;4926091;29;20019;-81
2022/09/06 18:03:31;;;;;;;15.48;5.60;;;;;;;;;;4920713;29;20083;-80
2022/09/06 18:06:07;;;;;;;13.45;4.60;;;;;;;;;;4921065;29;20106;-81
2022/09/06 18:08:34;;;;;;;7.53;4.60;;;;;;;;;;4920923;29;20138;-79
2022/09/06 18:11:11;;;;;;;6.53;4.28;;;;;;;;;;4920233;29;20119;-80
2022/09/06 18:13:37;;;;;;;8.82;4.35;;;;;;;;;;4920377;29;20058;-79
2022/09/06 18:16:05;;;;;;;8.30;5.05;;;;;;;;;;4937258;29;20035;-79
2022/09/06 18:18:31;;;;;;;5.38;3.88;;;;;;;;;;4919954;29;20044;-80
2022/09/06 18:20:58;;;;;;;7.75;3.83;;;;;;;;;;4937713;29;20076;-78
2022/09/06 18:23:24;;;;;;;6.07;4.00;;;;;;;;;;4920239;29;20031;-81
2022/09/06 18:25:57;;;;;;;5.32;3.15;;;;;;;;;;4937792;29;20371;-81
2022/09/06 18:28:24;;;;;;;5.90;3.80;;;;;;;;;;4919878;29;20394;-79
2022/09/06 18:30:50;;;;;;;6.22;3.75;;;;;;;;;;4920151;29;20414;-80
2022/09/06 18:33:16;;;;;;;6.63;4.20;;;;;;;;;;4919825;29;20020;-80
2022/09/06 18:35:43;;;;;;;6.10;4.00;;;;;;;;;;4919815;29;20031;-80
2022/09/06 18:38:10;;;;;;;8.57;4.60;;;;;;;;;;4928122;29;20058;-79
2022/09/06 18:40:39;;;;;;;11.23;4.22;;;;;;;;;;4946223;29;20043;-79
2022/09/06 18:43:05;;;;;;;6.60;4.35;;;;;;;;;;4937156;29;20043;-79
2022/09/06 18:45:34;;;;;;;6.78;4.88;;;;;;;;;;4952975;29;20032;-80
2022/09/06 18:48:01;;;;;;;8.63;5.32;;;;;;;;;;4919907;29;20031;-81
2022/09/06 18:50:27;;;;;;;9.77;5.63;;;;;;;;;;4920805;29;20028;-78
2022/09/06 18:52:54;;;;;;;10.68;6.32;;;;;;;;;;4923013;29;20480;-79
2022/09/06 18:55:20;;;;;;;10.40;5.93;;;;;;;;;;4935231;29;20083;-81
2022/09/06 18:57:46;;;;;;;10.07;5.65;;;;;;;;;;4919354;29;20059;-80
2022/09/06 19:00:13;;;;;;;13.65;6.22;;;;;;;;;;4944244;29;20027;-81
2022/09/06 19:02:39;;;;;;;7.50;5.18;;;;;;;;;;4955533;29;20023;-81
2022/09/06 19:05:05;;;;;;;9.10;5.25;;;;;;;;;;4956213;29;20039;-80
2022/09/06 19:07:32;;;;;;;7.30;5.13;;;;;;;;;;4955588;29;20102;-80
2022/09/06 19:09:58;;;;;;;8.18;5.40;;;;;;;;;;4937947;29;20027;-82
2022/09/06 19:12:24;;;;;;;8.93;5.35;;;;;;;;;;4936744;29;20392;-79
2022/09/06 19:14:51;;;;;;;10.68;6.25;;;;;;;;;;4919465;29;20028;-79
2022/09/06 19:17:17;;;;;;;11.20;6.45;;;;;;;;;;4936975;29;20059;-82
2022/09/06 19:19:43;;;;;;;10.40;6.75;;;;;;;;;;4919534;29;20039;-82
2022/09/06 19:22:09;;;;;;;10.88;5.97;;;;;;;;;;4919312;29;20362;-80
2022/09/06 19:24:37;;;;;;;10.90;6.78;;;;;;;;;;4936388;29;20110;-81
2022/09/06 19:27:04;;;;;;;10.80;6.75;;;;;;;;;;4935986;29;20043;-81
2022/09/06 19:29:30;;;;;;;12.18;6.93;;;;;;;;;;4937972;29;20034;-82
2022/09/06 19:31:58;;;;;;;8.57;6.15;;;;;;;;;;4938459;29;20035;-83
2022/09/06 19:34:24;;;;;;;10.00;6.65;;;;;;;;;;4938239;29;20035;-81
2022/09/06 19:36:53;;;;;;;9.25;5.57;;;;;;;;;;4937915;29;20559;-80
2022/09/06 19:39:20;;;;;;;9.38;6.47;;;;;;;;;;4938002;29;20039;-79
2022/09/06 19:41:46;;;;;;;14.10;6.60;;;;;;;;;;4955199;29;20538;-79
2022/09/06 19:44:13;;;;;;;16.70;9.18;;;;;;;;;;4955264;29;20443;-79
2022/09/06 19:46:40;;;;;;;17.75;9.35;;;;;;;;;;4938242;29;20050;-80
2022/09/06 19:49:07;;;;;;;8.00;5.63;;;;;;;;;;4938525;29;20036;-79
2022/09/06 19:51:35;;;;;;;7.85;4.97;;;;;;;;;;4956280;29;20023;-79
2022/09/06 19:54:01;;;;;;;7.18;5.05;;;;;;;;;;4964336;29;20024;-76
2022/09/06 19:56:32;;;;;;;6.63;4.70;;;;;;;;;;4939775;29;20039;-78
2022/09/06 19:58:59;;;;;;;5.82;4.43;;;;;;;;;;4918812;29;20042;-77
2022/09/06 20:01:27;;;;;;;6.50;4.55;;;;;;;;;;4918749;29;20024;-78
2022/09/06 20:03:54;;;;;;;6.82;5.30;;;;;;;;;;4918724;29;20214;-78
2022/09/06 20:06:21;;;;;;;8.13;4.80;;;;;;;;;;4919406;29;20035;-78
2022/09/06 20:08:51;;;;;;;7.45;5.40;;;;;;;;;;4918697;29;20552;-80
2022/09/06 20:11:18;;;;;;;7.00;4.75;;;;;;;;;;4919441;29;20433;-80
2022/09/06 20:13:44;;;;;;;8.48;5.70;;;;;;;;;;4918639;29;20031;-78
2022/09/06 20:16:11;;;;;;;7.88;5.30;;;;;;;;;;4935527;29;20035;-79
2022/09/06 20:18:37;;;;;;;7.18;5.35;;;;;;;;;;4918109;29;20032;-82
2022/09/06 20:21:04;;;;;;;7.30;5.28;;;;;;;;;;4934887;29;20053;-80
2022/09/06 20:23:31;;;;;;;9.40;6.15;;;;;;;;;;4935001;29;20031;-79
2022/09/06 20:26:05;;;;;;;9.75;5.93;;;;;;;;;;4935266;29;20032;-80
2022/09/06 20:28:32;;;;;;;8.60;5.90;;;;;;;;;;4918102;29;20063;-81
2022/09/06 20:31:02;;;;;;;8.15;5.60;;;;;;;;;;4935352;29;20111;-81
2022/09/06 20:33:29;;;;;;;7.97;5.97;;;;;;;;;;4917948;29;20114;-81
2022/09/06 20:36:02;;;;;;;9.63;6.07;;;;;;;;;;4935455;29;20031;-81
2022/09/06 20:38:29;;;;;;;7.68;5.47;;;;;;;;;;4918139;29;20043;-79
2022/09/06 20:41:06;;;;;;;7.18;5.10;;;;;;;;;;4923287;29;20388;-81
2022/09/06 20:43:35;;;;;;;7.97;5.60;;;;;;;;;;4938661;29;20047;-79
2022/09/06 20:46:03;;;;;;;8.07;5.63;;;;;;;;;;4921609;29;20142;-79
2022/09/06 20:48:33;;;;;;;6.72;4.60;;;;;;;;;;4921681;29;20051;-79
2022/09/06 20:51:00;;;;;;;11.93;5.78;;;;;;;;;;4938642;29;20032;-81
2022/09/06 20:53:27;;;;;;;9.32;5.55;;;;;;;;;;4921340;29;20051;-80
2022/09/06 20:55:57;;;;;;;9.75;6.18;;;;;;;;;;4921251;29;20039;-79
2022/09/06 20:58:24;;;;;;;9.13;5.70;;;;;;;;;;4921102;29;20036;-79
2022/09/06 21:00:50;;;;;;;8.20;5.15;;;;;;;;;;4921368;29;20024;-81
2022/09/06 21:03:17;;;;;;;11.88;5.97;;;;;;;;;;4938431;29;20742;-79
2022/09/06 21:05:43;;;;;;;10.65;6.50;;;;;;;;;;4938446;29;20456;-80
2022/09/06 21:08:09;;;;;;;9.60;6.80;;;;;;;;;;4920836;29;20110;-80
2022/09/06 21:10:36;;;;;;;8.85;6.10;;;;;;;;;;4921196;29;20387;-80
2022/09/06 21:13:02;;;;;;;12.60;6.28;;;;;;;;;;4938324;29;20027;-80
2022/09/06 21:15:32;;;;;;;9.50;5.97;;;;;;;;;;4920916;29;20118;-79
2022/09/06 21:17:58;;;;;;;10.57;6.07;;;;;;;;;;4921130;29;20036;-79
2022/09/06 21:20:24;;;;;;;8.35;5.88;;;;;;;;;;4937988;29;20083;-79
2022/09/06 21:22:50;;;;;;;9.90;5.40;;;;;;;;;;4938097;29;20493;-79
2022/09/06 21:25:16;;;;;;;9.32;5.57;;;;;;;;;;4920622;29;20030;-79
2022/09/06 21:27:42;;;;;;;8.25;5.55;;;;;;;;;;4937760;29;20027;-80
2022/09/06 21:30:09;;;;;;;8.55;4.60;;;;;;;;;;4920796;29;20051;-81
2022/09/06 21:32:35;;;;;;;11.15;6.47;;;;;;;;;;4921034;29;20032;-80
2022/09/06 21:35:01;;;;;;;9.55;5.88;;;;;;;;;;4920241;29;20481;-79
2022/09/06 21:37:27;;;;;;;9.60;5.97;;;;;;;;;;4920157;29;20457;-80
2022/09/06 21:39:54;;;;;;;9.57;5.88;;;;;;;;;;4920332;29;20055;-79
2022/09/06 21:42:20;;;;;;;10.20;6.20;;;;;;;;;;4937599;29;20126;-81
2022/09/06 21:44:46;;;;;;;8.30;6.40;;;;;;;;;;4920340;29;20449;-81
2022/09/06 21:47:13;;;;;;;9.60;6.38;;;;;;;;;;4920620;29;20366;-81
2022/09/06 21:49:39;;;;;;;13.85;5.50;;;;;;;;;;4937684;29;20392;-80
2022/09/06 21:52:05;;;;;;;10.98;6.50;;;;;;;;;;4919696;29;20027;-81
2022/09/06 21:54:31;;;;;;;13.30;7.18;;;;;;;;;;4937514;29;20043;-81
2022/09/06 21:56:57;;;;;;;10.60;6.32;;;;;;;;;;4937371;29;20028;-80
2022/09/06 21:59:24;;;;;;;11.30;6.22;;;;;;;;;;4919835;29;20484;-80
2022/09/06 22:01:51;;;;;;;11.43;6.95;;;;;;;;;;4920502;29;20114;-82
2022/09/06 22:04:18;;;;;;;10.10;5.72;;;;;;;;;;4919685;29;20028;-80
2022/09/06 22:06:47;;;;;;;10.27;6.15;;;;;;;;;;4919705;29;20066;-80
2022/09/06 22:09:15;;;;;;;15.70;6.50;;;;;;;;;;4919532;29;20055;-79
2022/09/06 22:11:42;;;;;;;9.60;5.72;;;;;;;;;;4936907;29;20146;-80
2022/09/06 22:14:09;;;;;;;10.75;6.43;;;;;;;;;;4919815;29;20028;-81
2022/09/06 22:16:36;;;;;;;7.78;4.88;;;;;;;;;;4919984;29;20027;-82
2022/09/06 22:19:03;;;;;;;12.43;6.30;;;;;;;;;;4919617;29;20492;-78
2022/09/06 22:21:30;;;;;;;8.13;5.60;;;;;;;;;;4919703;29;20078;-82
2022/09/06 22:23:58;;;;;;;6.07;4.25;;;;;;;;;;4936831;29;20031;-79
2022/09/06 22:26:25;;;;;;;7.80;4.57;;;;;;;;;;4919707;29;20237;-80